sensor_id;sensor_type;location;lat;lon;timestamp;temperature;humidity
27707;DHT22;36332;51.384;0.040;2023-04-16T00:02:00;8.40;99.90
27707;DHT22;36332;51.384;0.040;2023-04-16T00:04:28;8.90;99.90
27707;DHT22;36332;51.384;0.040;2023-04-16T00:06:58;8.40;99.90
27707;DHT22;36332;51.384;0.040;2023-04-16T00:11:55;8.30;99.90
27707;DHT22;36332;51.384;0.040;2023-04-16T00:14:23;8.30;99.90
27707;DHT22;36332;51.384;0.040;2023-04-16T00:19:22;8.30;99.90
27707;DHT22;36332;51.384;0.040;2023-04-16T00:21:50;8.20;99.90
27707;DHT22;36332;51.384;0.040;2023-04-16T00:24:19;8.20;99.90
27707;DHT22;36332;51.384;0.040;2023-04-16T00:26:47;8.10;99.90
27707;DHT22;36332;51.384;0.040;2023-04-16T00:29:15;8.10;99.90
27707;DHT22;36332;51.384;0.040;2023-04-16T00:31:44;7.90;99.90
27707;DHT22;36332;51.384;0.040;2023-04-16T00:34:15;8.10;99.90
27707;DHT22;36332;51.384;0.040;2023-04-16T00:36:43;8.10;99.90
27707;DHT22;36332;51.384;0.040;2023-04-16T00:39:14;8.10;99.90
27707;DHT22;36332;51.384;0.040;2023-04-16T00:41:43;8.10;99.90
27707;DHT22;36332;51.384;0.040;2023-04-16T00:44:10;8.10;99.90
27707;DHT22;36332;51.384;0.040;2023-04-16T00:46:39;8.10;99.90
27707;DHT22;36332;51.384;0.040;2023-04-16T00:49:09;8.10;99.90
27707;DHT22;36332;51.384;0.040;2023-04-16T00:51:38;8.10;99.90
27707;DHT22;36332;51.384;0.040;2023-04-16T00:54:06;8.10;99.90
27707;DHT22;36332;51.384;0.040;2023-04-16T00:59:07;8.10;99.90
27707;DHT22;36332;51.384;0.040;2023-04-16T01:01:37;8.00;99.90
27707;DHT22;36332;51.384;0.040;2023-04-16T01:04:06;8.10;99.90
27707;DHT22;36332;51.384;0.040;2023-04-16T01:06:34;8.10;99.90
27707;DHT22;36332;51.384;0.040;2023-04-16T01:09:02;8.10;99.90
27707;DHT22;36332;51.384;0.040;2023-04-16T01:11:30;8.00;99.90
27707;DHT22;36332;51.384;0.040;2023-04-16T01:13:59;8.00;99.90
27707;DHT22;36332;51.384;0.040;2023-04-16T01:16:27;8.00;99.90
27707;DHT22;36332;51.384;0.040;2023-04-16T01:18:56;8.00;99.90
27707;DHT22;36332;51.384;0.040;2023-04-16T01:21:24;7.90;99.90
27707;DHT22;36332;51.384;0.040;2023-04-16T01:24:04;7.90;99.90
27707;DHT22;36332;51.384;0.040;2023-04-16T01:26:32;7.80;99.90
27707;DHT22;36332;51.384;0.040;2023-04-16T01:29:01;7.80;99.90
27707;DHT22;36332;51.384;0.040;2023-04-16T01:31:32;7.80;99.90
27707;DHT22;36332;51.384;0.040;2023-04-16T01:34:11;7.80;99.90
27707;DHT22;36332;51.384;0.040;2023-04-16T01:36:39;7.90;99.90
27707;DHT22;36332;51.384;0.040;2023-04-16T01:39:07;7.90;99.90
27707;DHT22;36332;51.384;0.040;2023-04-16T01:41:38;7.80;99.90
27707;DHT22;36332;51.384;0.040;2023-04-16T01:44:07;7.90;99.90
27707;DHT22;36332;51.384;0.040;2023-04-16T01:46:36;7.90;99.90
27707;DHT22;36332;51.384;0.040;2023-04-16T01:49:08;7.80;99.90
27707;DHT22;36332;51.384;0.040;2023-04-16T01:51:36;7.80;99.90
27707;DHT22;36332;51.384;0.040;2023-04-16T01:54:05;7.80;99.90
27707;DHT22;36332;51.384;0.040;2023-04-16T01:56:33;7.70;99.90
27707;DHT22;36332;51.384;0.040;2023-04-16T01:59:02;7.70;99.90
27707;DHT22;36332;51.384;0.040;2023-04-16T02:01:36;7.70;99.90
27707;DHT22;36332;51.384;0.040;2023-04-16T02:04:08;7.70;99.90
27707;DHT22;36332;51.384;0.040;2023-04-16T02:06:38;7.60;99.90
27707;DHT22;36332;51.384;0.040;2023-04-16T02:09:08;7.70;99.90
27707;DHT22;36332;51.384;0.040;2023-04-16T02:11:37;7.60;99.90
27707;DHT22;36332;51.384;0.040;2023-04-16T02:14:05;7.60;99.90
27707;DHT22;36332;51.384;0.040;2023-04-16T02:16:37;7.60;99.90
27707;DHT22;36332;51.384;0.040;2023-04-16T02:19:19;7.60;99.90
27707;DHT22;36332;51.384;0.040;2023-04-16T02:21:47;7.60;99.90
27707;DHT22;36332;51.384;0.040;2023-04-16T02:24:15;8.00;99.90
27707;DHT22;36332;51.384;0.040;2023-04-16T02:26:44;7.60;99.90
27707;DHT22;36332;51.384;0.040;2023-04-16T02:29:16;7.60;99.90
27707;DHT22;36332;51.384;0.040;2023-04-16T02:31:51;7.60;99.90
27707;DHT22;36332;51.384;0.040;2023-04-16T02:34:20;7.60;99.90
27707;DHT22;36332;51.384;0.040;2023-04-16T02:36:48;7.60;99.90
27707;DHT22;36332;51.384;0.040;2023-04-16T02:39:16;7.60;99.90
27707;DHT22;36332;51.384;0.040;2023-04-16T02:41:46;7.40;99.90
27707;DHT22;36332;51.384;0.040;2023-04-16T02:44:15;7.60;99.90
27707;DHT22;36332;51.384;0.040;2023-04-16T02:46:45;7.60;99.90
27707;DHT22;36332;51.384;0.040;2023-04-16T02:49:14;7.60;99.90
27707;DHT22;36332;51.384;0.040;2023-04-16T02:51:43;7.60;99.90
27707;DHT22;36332;51.384;0.040;2023-04-16T02:54:12;7.70;99.90
27707;DHT22;36332;51.384;0.040;2023-04-16T02:56:41;7.70;99.90
27707;DHT22;36332;51.384;0.040;2023-04-16T02:59:09;7.70;99.90
27707;DHT22;36332;51.384;0.040;2023-04-16T03:01:37;7.80;99.90
27707;DHT22;36332;51.384;0.040;2023-04-16T03:04:06;7.80;99.90
27707;DHT22;36332;51.384;0.040;2023-04-16T03:06:35;7.80;99.90
27707;DHT22;36332;51.384;0.040;2023-04-16T03:09:04;7.80;99.90
27707;DHT22;36332;51.384;0.040;2023-04-16T03:11:36;7.90;99.90
27707;DHT22;36332;51.384;0.040;2023-04-16T03:14:04;7.90;99.90
27707;DHT22;36332;51.384;0.040;2023-04-16T03:16:33;7.90;99.90
27707;DHT22;36332;51.384;0.040;2023-04-16T03:19:00;7.90;99.90
27707;DHT22;36332;51.384;0.040;2023-04-16T03:21:29;7.90;99.90
27707;DHT22;36332;51.384;0.040;2023-04-16T03:23:59;8.00;99.90
27707;DHT22;36332;51.384;0.040;2023-04-16T03:26:27;8.10;99.90
27707;DHT22;36332;51.384;0.040;2023-04-16T03:28:56;8.00;99.90
27707;DHT22;36332;51.384;0.040;2023-04-16T03:31:25;8.00;99.90
27707;DHT22;36332;51.384;0.040;2023-04-16T03:33:55;8.00;99.90
27707;DHT22;36332;51.384;0.040;2023-04-16T03:36:23;8.00;99.90
27707;DHT22;36332;51.384;0.040;2023-04-16T03:38:52;8.00;99.90
27707;DHT22;36332;51.384;0.040;2023-04-16T03:41:20;7.90;99.90
27707;DHT22;36332;51.384;0.040;2023-04-16T03:43:48;7.90;99.90
27707;DHT22;36332;51.384;0.040;2023-04-16T03:46:18;7.90;99.90
27707;DHT22;36332;51.384;0.040;2023-04-16T03:48:51;8.80;99.90
27707;DHT22;36332;51.384;0.040;2023-04-16T03:51:19;8.00;99.90
27707;DHT22;36332;51.384;0.040;2023-04-16T03:53:47;8.00;99.90
27707;DHT22;36332;51.384;0.040;2023-04-16T03:56:16;8.00;99.90
27707;DHT22;36332;51.384;0.040;2023-04-16T03:58:45;11.30;99.90
27707;DHT22;36332;51.384;0.040;2023-04-16T04:01:14;8.00;99.90
27707;DHT22;36332;51.384;0.040;2023-04-16T04:03:42;8.00;99.90
27707;DHT22;36332;51.384;0.040;2023-04-16T04:06:12;8.00;99.90
27707;DHT22;36332;51.384;0.040;2023-04-16T04:08:42;8.00;99.90
27707;DHT22;36332;51.384;0.040;2023-04-16T04:11:14;7.90;99.90
27707;DHT22;36332;51.384;0.040;2023-04-16T04:13:43;7.90;99.90
27707;DHT22;36332;51.384;0.040;2023-04-16T04:16:12;8.00;99.90
27707;DHT22;36332;51.384;0.040;2023-04-16T04:18:43;7.90;99.90
27707;DHT22;36332;51.384;0.040;2023-04-16T04:21:12;8.00;99.90
27707;DHT22;36332;51.384;0.040;2023-04-16T04:23:40;8.00;99.90
27707;DHT22;36332;51.384;0.040;2023-04-16T04:26:11;8.10;99.90
27707;DHT22;36332;51.384;0.040;2023-04-16T04:28:41;8.10;99.90
27707;DHT22;36332;51.384;0.040;2023-04-16T04:31:12;8.10;99.90
27707;DHT22;36332;51.384;0.040;2023-04-16T04:33:40;8.10;99.90
27707;DHT22;36332;51.384;0.040;2023-04-16T04:36:07;8.10;99.90
27707;DHT22;36332;51.384;0.040;2023-04-16T04:38:36;8.10;99.90
27707;DHT22;36332;51.384;0.040;2023-04-16T04:41:03;8.10;99.90
27707;DHT22;36332;51.384;0.040;2023-04-16T04:43:35;8.10;99.90
27707;DHT22;36332;51.384;0.040;2023-04-16T04:46:02;8.10;99.90
27707;DHT22;36332;51.384;0.040;2023-04-16T04:48:31;8.20;99.90
27707;DHT22;36332;51.384;0.040;2023-04-16T04:50:59;8.20;99.90
27707;DHT22;36332;51.384;0.040;2023-04-16T04:53:30;8.20;99.90
27707;DHT22;36332;51.384;0.040;2023-04-16T04:55:57;8.20;99.90
27707;DHT22;36332;51.384;0.040;2023-04-16T04:58:40;8.20;99.90
27707;DHT22;36332;51.384;0.040;2023-04-16T05:01:07;8.20;99.90
27707;DHT22;36332;51.384;0.040;2023-04-16T05:03:35;8.30;99.90
27707;DHT22;36332;51.384;0.040;2023-04-16T05:06:02;8.30;99.90
27707;DHT22;36332;51.384;0.040;2023-04-16T05:08:30;8.30;99.90
27707;DHT22;36332;51.384;0.040;2023-04-16T05:10:57;8.30;99.90
27707;DHT22;36332;51.384;0.040;2023-04-16T05:13:25;8.40;99.90
27707;DHT22;36332;51.384;0.040;2023-04-16T05:15:53;8.40;99.90
27707;DHT22;36332;51.384;0.040;2023-04-16T05:18:21;8.00;99.90
27707;DHT22;36332;51.384;0.040;2023-04-16T05:20:48;8.40;99.90
27707;DHT22;36332;51.384;0.040;2023-04-16T05:23:15;8.40;99.90
27707;DHT22;36332;51.384;0.040;2023-04-16T05:25:43;8.50;99.90
27707;DHT22;36332;51.384;0.040;2023-04-16T05:28:10;8.50;99.90
27707;DHT22;36332;51.384;0.040;2023-04-16T05:30:38;8.60;99.90
27707;DHT22;36332;51.384;0.040;2023-04-16T05:33:05;8.60;99.90
27707;DHT22;36332;51.384;0.040;2023-04-16T05:35:33;8.60;99.90
27707;DHT22;36332;51.384;0.040;2023-04-16T05:38:01;8.70;99.90
27707;DHT22;36332;51.384;0.040;2023-04-16T05:40:31;8.70;99.90
27707;DHT22;36332;51.384;0.040;2023-04-16T05:42:58;8.80;99.90
27707;DHT22;36332;51.384;0.040;2023-04-16T05:45:26;8.80;99.90
27707;DHT22;36332;51.384;0.040;2023-04-16T05:47:55;8.90;99.90
27707;DHT22;36332;51.384;0.040;2023-04-16T05:50:22;8.90;99.90
27707;DHT22;36332;51.384;0.040;2023-04-16T05:52:50;8.90;99.90
27707;DHT22;36332;51.384;0.040;2023-04-16T05:55:17;9.00;99.90
27707;DHT22;36332;51.384;0.040;2023-04-16T05:57:45;9.00;99.90
27707;DHT22;36332;51.384;0.040;2023-04-16T06:00:13;9.10;99.90
27707;DHT22;36332;51.384;0.040;2023-04-16T06:02:41;9.10;99.90
27707;DHT22;36332;51.384;0.040;2023-04-16T06:05:08;9.10;99.90
27707;DHT22;36332;51.384;0.040;2023-04-16T06:07:36;9.70;99.90
27707;DHT22;36332;51.384;0.040;2023-04-16T06:10:04;9.20;99.90
27707;DHT22;36332;51.384;0.040;2023-04-16T06:12:31;9.30;99.90
27707;DHT22;36332;51.384;0.040;2023-04-16T06:14:59;9.30;99.90
27707;DHT22;36332;51.384;0.040;2023-04-16T06:17:27;9.40;99.90
27707;DHT22;36332;51.384;0.040;2023-04-16T06:19:55;9.50;99.90
27707;DHT22;36332;51.384;0.040;2023-04-16T06:22:23;9.60;99.90
27707;DHT22;36332;51.384;0.040;2023-04-16T06:24:52;9.60;99.90
27707;DHT22;36332;51.384;0.040;2023-04-16T06:27:19;9.60;99.90
27707;DHT22;36332;51.384;0.040;2023-04-16T06:29:47;9.80;99.90
27707;DHT22;36332;51.384;0.040;2023-04-16T06:32:15;9.70;99.90
27707;DHT22;36332;51.384;0.040;2023-04-16T06:34:43;9.80;99.90
27707;DHT22;36332;51.384;0.040;2023-04-16T06:37:11;9.80;99.90
27707;DHT22;36332;51.384;0.040;2023-04-16T06:39:38;10.00;99.90
27707;DHT22;36332;51.384;0.040;2023-04-16T06:42:05;10.10;99.90
27707;DHT22;36332;51.384;0.040;2023-04-16T06:44:34;10.10;99.90
27707;DHT22;36332;51.384;0.040;2023-04-16T06:47:02;10.20;99.90
27707;DHT22;36332;51.384;0.040;2023-04-16T06:49:30;10.20;99.90
27707;DHT22;36332;51.384;0.040;2023-04-16T06:51:57;10.30;99.90
27707;DHT22;36332;51.384;0.040;2023-04-16T06:54:25;10.50;99.90
27707;DHT22;36332;51.384;0.040;2023-04-16T06:56:52;10.50;99.90
27707;DHT22;36332;51.384;0.040;2023-04-16T06:59:20;10.70;99.90
27707;DHT22;36332;51.384;0.040;2023-04-16T07:01:48;10.80;99.90
27707;DHT22;36332;51.384;0.040;2023-04-16T07:04:15;10.80;99.90
27707;DHT22;36332;51.384;0.040;2023-04-16T07:06:43;10.90;99.90
27707;DHT22;36332;51.384;0.040;2023-04-16T07:09:11;11.10;99.90
27707;DHT22;36332;51.384;0.040;2023-04-16T07:11:39;11.10;99.90
27707;DHT22;36332;51.384;0.040;2023-04-16T07:14:07;11.30;99.90
27707;DHT22;36332;51.384;0.040;2023-04-16T07:16:34;11.40;99.90
27707;DHT22;36332;51.384;0.040;2023-04-16T07:19:04;11.40;99.90
27707;DHT22;36332;51.384;0.040;2023-04-16T07:21:31;11.60;99.90
27707;DHT22;36332;51.384;0.040;2023-04-16T07:23:59;11.80;99.90
27707;DHT22;36332;51.384;0.040;2023-04-16T07:26:27;11.80;99.90
27707;DHT22;36332;51.384;0.040;2023-04-16T07:28:54;11.90;99.90
27707;DHT22;36332;51.384;0.040;2023-04-16T07:31:22;12.00;99.90
27707;DHT22;36332;51.384;0.040;2023-04-16T07:33:49;12.00;99.90
27707;DHT22;36332;51.384;0.040;2023-04-16T07:36:17;12.20;99.90
27707;DHT22;36332;51.384;0.040;2023-04-16T07:38:44;12.40;99.90
27707;DHT22;36332;51.384;0.040;2023-04-16T07:41:12;12.50;99.90
27707;DHT22;36332;51.384;0.040;2023-04-16T07:43:39;12.70;99.90
27707;DHT22;36332;51.384;0.040;2023-04-16T07:46:07;12.80;99.90
27707;DHT22;36332;51.384;0.040;2023-04-16T07:48:34;12.90;99.90
27707;DHT22;36332;51.384;0.040;2023-04-16T07:51:02;13.10;99.90
27707;DHT22;36332;51.384;0.040;2023-04-16T07:53:29;13.20;99.90
27707;DHT22;36332;51.384;0.040;2023-04-16T07:55:57;13.40;99.90
27707;DHT22;36332;51.384;0.040;2023-04-16T07:58:24;13.50;99.90
27707;DHT22;36332;51.384;0.040;2023-04-16T08:00:52;13.60;99.90
27707;DHT22;36332;51.384;0.040;2023-04-16T08:05:48;13.80;99.90
27707;DHT22;36332;51.384;0.040;2023-04-16T08:08:15;14.10;99.90
27707;DHT22;36332;51.384;0.040;2023-04-16T08:10:43;14.10;99.90
27707;DHT22;36332;51.384;0.040;2023-04-16T08:13:10;14.30;99.90
27707;DHT22;36332;51.384;0.040;2023-04-16T08:15:38;14.40;99.90
27707;DHT22;36332;51.384;0.040;2023-04-16T08:18:06;14.60;99.90
27707;DHT22;36332;51.384;0.040;2023-04-16T08:20:39;14.60;99.90
27707;DHT22;36332;51.384;0.040;2023-04-16T08:23:07;14.70;99.90
27707;DHT22;36332;51.384;0.040;2023-04-16T08:25:34;14.80;99.90
27707;DHT22;36332;51.384;0.040;2023-04-16T08:28:02;15.00;99.90
27707;DHT22;36332;51.384;0.040;2023-04-16T08:30:30;15.10;99.90
27707;DHT22;36332;51.384;0.040;2023-04-16T08:32:57;15.20;99.90
27707;DHT22;36332;51.384;0.040;2023-04-16T08:35:26;15.40;99.90
27707;DHT22;36332;51.384;0.040;2023-04-16T08:37:53;15.40;99.90
27707;DHT22;36332;51.384;0.040;2023-04-16T08:40:21;15.50;99.90
27707;DHT22;36332;51.384;0.040;2023-04-16T08:42:54;15.50;99.90
27707;DHT22;36332;51.384;0.040;2023-04-16T08:45:25;15.60;99.90
27707;DHT22;36332;51.384;0.040;2023-04-16T08:47:53;15.60;99.90
27707;DHT22;36332;51.384;0.040;2023-04-16T08:50:25;15.60;99.90
27707;DHT22;36332;51.384;0.040;2023-04-16T08:52:58;15.70;99.90
27707;DHT22;36332;51.384;0.040;2023-04-16T08:55:37;15.70;99.90
27707;DHT22;36332;51.384;0.040;2023-04-16T08:58:11;15.80;99.90
27707;DHT22;36332;51.384;0.040;2023-04-16T09:00:39;15.90;99.90
27707;DHT22;36332;51.384;0.040;2023-04-16T09:03:08;16.10;99.90
27707;DHT22;36332;51.384;0.040;2023-04-16T09:05:38;16.20;99.90
27707;DHT22;36332;51.384;0.040;2023-04-16T09:08:05;16.30;99.90
27707;DHT22;36332;51.384;0.040;2023-04-16T09:10:33;16.30;99.90
27707;DHT22;36332;51.384;0.040;2023-04-16T09:13:01;16.30;99.90
27707;DHT22;36332;51.384;0.040;2023-04-16T09:15:29;16.20;99.90
27707;DHT22;36332;51.384;0.040;2023-04-16T09:17:56;16.20;99.90
27707;DHT22;36332;51.384;0.040;2023-04-16T09:20:24;16.20;99.90
27707;DHT22;36332;51.384;0.040;2023-04-16T09:22:51;16.20;99.90
27707;DHT22;36332;51.384;0.040;2023-04-16T09:53:00;17.40;99.90
27707;DHT22;36332;51.384;0.040;2023-04-16T09:55:29;17.40;99.90
27707;DHT22;36332;51.384;0.040;2023-04-16T09:58:00;17.40;99.90
27707;DHT22;36332;51.384;0.040;2023-04-16T10:00:29;17.40;99.90
27707;DHT22;36332;51.384;0.040;2023-04-16T10:03:04;17.40;99.90
27707;DHT22;36332;51.384;0.040;2023-04-16T10:05:33;17.40;99.90
27707;DHT22;36332;51.384;0.040;2023-04-16T10:08:01;17.40;99.90
27707;DHT22;36332;51.384;0.040;2023-04-16T10:10:29;17.50;99.90
27707;DHT22;36332;51.384;0.040;2023-04-16T10:12:57;17.90;99.90
27707;DHT22;36332;51.384;0.040;2023-04-16T10:15:24;17.80;99.90
27707;DHT22;36332;51.384;0.040;2023-04-16T10:17:53;17.90;99.90
27707;DHT22;36332;51.384;0.040;2023-04-16T10:20:22;18.00;99.90
27707;DHT22;36332;51.384;0.040;2023-04-16T10:22:50;18.10;99.90
27707;DHT22;36332;51.384;0.040;2023-04-16T10:25:20;18.20;99.90
27707;DHT22;36332;51.384;0.040;2023-04-16T10:27:49;18.30;99.90
27707;DHT22;36332;51.384;0.040;2023-04-16T10:30:17;18.30;99.90
27707;DHT22;36332;51.384;0.040;2023-04-16T10:32:45;18.20;99.90
27707;DHT22;36332;51.384;0.040;2023-04-16T10:35:16;18.10;99.90
27707;DHT22;36332;51.384;0.040;2023-04-16T10:37:45;18.10;99.90
27707;DHT22;36332;51.384;0.040;2023-04-16T10:40:26;18.10;99.90
27707;DHT22;36332;51.384;0.040;2023-04-16T10:42:55;18.20;99.90
27707;DHT22;36332;51.384;0.040;2023-04-16T10:45:36;18.20;99.90
27707;DHT22;36332;51.384;0.040;2023-04-16T10:48:05;18.30;99.90
27707;DHT22;36332;51.384;0.040;2023-04-16T10:50:36;18.40;99.90
27707;DHT22;36332;51.384;0.040;2023-04-16T10:58:35;18.40;99.90
27707;DHT22;36332;51.384;0.040;2023-04-16T11:01:13;18.40;99.90
27707;DHT22;36332;51.384;0.040;2023-04-16T11:03:45;18.50;99.90
27707;DHT22;36332;51.384;0.040;2023-04-16T11:06:23;17.90;99.90
27707;DHT22;36332;51.384;0.040;2023-04-16T11:08:51;18.30;99.90
27707;DHT22;36332;51.384;0.040;2023-04-16T11:11:21;18.30;99.90
27707;DHT22;36332;51.384;0.040;2023-04-16T11:13:54;18.30;99.90
27707;DHT22;36332;51.384;0.040;2023-04-16T11:16:23;18.30;99.90
27707;DHT22;36332;51.384;0.040;2023-04-16T11:18:52;18.40;99.90
27707;DHT22;36332;51.384;0.040;2023-04-16T11:21:24;18.50;99.90
27707;DHT22;36332;51.384;0.040;2023-04-16T11:23:53;18.70;99.90
27707;DHT22;36332;51.384;0.040;2023-04-16T11:26:26;19.10;99.90
27707;DHT22;36332;51.384;0.040;2023-04-16T11:28:55;18.90;99.90
27707;DHT22;36332;51.384;0.040;2023-04-16T11:31:23;18.90;99.90
27707;DHT22;36332;51.384;0.040;2023-04-16T11:33:51;19.00;99.90
27707;DHT22;36332;51.384;0.040;2023-04-16T11:36:19;18.80;99.90
27707;DHT22;36332;51.384;0.040;2023-04-16T11:38:46;19.00;99.90
27707;DHT22;36332;51.384;0.040;2023-04-16T11:41:19;19.00;99.90
27707;DHT22;36332;51.384;0.040;2023-04-16T11:43:48;19.10;99.90
27707;DHT22;36332;51.384;0.040;2023-04-16T11:46:16;19.10;99.90
27707;DHT22;36332;51.384;0.040;2023-04-16T11:48:54;19.10;99.90
27707;DHT22;36332;51.384;0.040;2023-04-16T11:51:22;19.20;99.90
27707;DHT22;36332;51.384;0.040;2023-04-16T11:53:53;19.20;99.90
27707;DHT22;36332;51.384;0.040;2023-04-16T11:56:29;19.30;99.90
27707;DHT22;36332;51.384;0.040;2023-04-16T11:59:07;19.20;99.90
27707;DHT22;36332;51.384;0.040;2023-04-16T12:01:37;19.40;99.90
27707;DHT22;36332;51.384;0.040;2023-04-16T12:04:06;19.50;99.90
27707;DHT22;36332;51.384;0.040;2023-04-16T12:06:34;19.50;99.90
27707;DHT22;36332;51.384;0.040;2023-04-16T12:09:21;19.50;99.90
27707;DHT22;36332;51.384;0.040;2023-04-16T12:11:49;19.60;99.90
27707;DHT22;36332;51.384;0.040;2023-04-16T12:14:18;19.60;99.90
27707;DHT22;36332;51.384;0.040;2023-04-16T12:16:45;19.60;99.90
27707;DHT22;36332;51.384;0.040;2023-04-16T12:19:13;19.60;99.90
27707;DHT22;36332;51.384;0.040;2023-04-16T12:21:45;18.70;99.90
27707;DHT22;36332;51.384;0.040;2023-04-16T12:24:16;19.90;99.90
27707;DHT22;36332;51.384;0.040;2023-04-16T12:26:51;20.00;99.90
27707;DHT22;36332;51.384;0.040;2023-04-16T12:29:23;20.10;99.90
27707;DHT22;36332;51.384;0.040;2023-04-16T12:31:52;20.20;99.90
27707;DHT22;36332;51.384;0.040;2023-04-16T12:34:21;19.10;99.90
27707;DHT22;36332;51.384;0.040;2023-04-16T12:37:08;20.40;99.90
27707;DHT22;36332;51.384;0.040;2023-04-16T12:39:36;20.40;99.90
27707;DHT22;36332;51.384;0.040;2023-04-16T12:42:04;20.60;99.90
27707;DHT22;36332;51.384;0.040;2023-04-16T12:44:36;20.60;99.90
27707;DHT22;36332;51.384;0.040;2023-04-16T12:47:03;20.50;99.90
27707;DHT22;36332;51.384;0.040;2023-04-16T12:49:31;20.60;99.90
27707;DHT22;36332;51.384;0.040;2023-04-16T12:51:59;20.70;99.90
27707;DHT22;36332;51.384;0.040;2023-04-16T12:54:27;20.20;99.90
27707;DHT22;36332;51.384;0.040;2023-04-16T12:56:57;20.80;99.90
27707;DHT22;36332;51.384;0.040;2023-04-16T12:59:24;21.00;99.90
27707;DHT22;36332;51.384;0.040;2023-04-16T13:01:52;20.90;99.90
27707;DHT22;36332;51.384;0.040;2023-04-16T13:04:20;21.20;99.90
27707;DHT22;36332;51.384;0.040;2023-04-16T13:06:51;21.40;99.90
27707;DHT22;36332;51.384;0.040;2023-04-16T13:09:19;21.60;99.90
27707;DHT22;36332;51.384;0.040;2023-04-16T13:11:47;21.70;99.00
27707;DHT22;36332;51.384;0.040;2023-04-16T13:14:14;21.20;99.90
27707;DHT22;36332;51.384;0.040;2023-04-16T13:16:42;21.40;96.90
27707;DHT22;36332;51.384;0.040;2023-04-16T13:19:09;21.40;96.90
27707;DHT22;36332;51.384;0.040;2023-04-16T13:21:39;21.40;96.40
27707;DHT22;36332;51.384;0.040;2023-04-16T13:24:07;21.60;96.40
27707;DHT22;36332;51.384;0.040;2023-04-16T13:26:35;21.60;96.10
27707;DHT22;36332;51.384;0.040;2023-04-16T13:29:02;21.70;95.50
27707;DHT22;36332;51.384;0.040;2023-04-16T13:31:39;21.60;95.50
27707;DHT22;36332;51.384;0.040;2023-04-16T13:34:27;21.50;94.40
27707;DHT22;36332;51.384;0.040;2023-04-16T13:36:55;21.60;96.10
27707;DHT22;36332;51.384;0.040;2023-04-16T13:39:24;22.00;96.60
27707;DHT22;36332;51.384;0.040;2023-04-16T13:41:51;22.40;96.60
27707;DHT22;36332;51.384;0.040;2023-04-16T13:44:19;22.90;96.20
27707;DHT22;36332;51.384;0.040;2023-04-16T13:46:46;23.10;95.30
27707;DHT22;36332;51.384;0.040;2023-04-16T13:49:14;23.30;94.50
27707;DHT22;36332;51.384;0.040;2023-04-16T13:51:42;23.20;94.10
27707;DHT22;36332;51.384;0.040;2023-04-16T13:54:11;23.00;93.70
27707;DHT22;36332;51.384;0.040;2023-04-16T13:56:38;22.70;93.70
27707;DHT22;36332;51.384;0.040;2023-04-16T13:59:06;22.30;93.50
27707;DHT22;36332;51.384;0.040;2023-04-16T14:01:34;21.70;93.10
27707;DHT22;36332;51.384;0.040;2023-04-16T14:04:03;21.40;93.80
27707;DHT22;36332;51.384;0.040;2023-04-16T14:06:34;21.00;94.30
27707;DHT22;36332;51.384;0.040;2023-04-16T14:09:01;20.90;95.20
27707;DHT22;36332;51.384;0.040;2023-04-16T14:11:30;20.80;94.80
27707;DHT22;36332;51.384;0.040;2023-04-16T14:13:57;20.80;94.90
27707;DHT22;36332;51.384;0.040;2023-04-16T14:16:25;20.70;95.30
27707;DHT22;36332;51.384;0.040;2023-04-16T14:18:53;20.80;95.00
27707;DHT22;36332;51.384;0.040;2023-04-16T14:21:21;20.70;94.30
27707;DHT22;36332;51.384;0.040;2023-04-16T14:23:48;20.50;95.00
27707;DHT22;36332;51.384;0.040;2023-04-16T14:26:16;20.40;95.90
27707;DHT22;36332;51.384;0.040;2023-04-16T14:28:43;20.40;95.40
27707;DHT22;36332;51.384;0.040;2023-04-16T14:31:11;20.50;96.10
27707;DHT22;36332;51.384;0.040;2023-04-16T14:33:38;20.50;96.30
27707;DHT22;36332;51.384;0.040;2023-04-16T14:36:06;20.60;96.50
27707;DHT22;36332;51.384;0.040;2023-04-16T14:38:34;21.00;96.70
27707;DHT22;36332;51.384;0.040;2023-04-16T14:41:01;20.90;96.60
27707;DHT22;36332;51.384;0.040;2023-04-16T14:43:29;21.10;96.70
27707;DHT22;36332;51.384;0.040;2023-04-16T14:45:57;21.50;96.40
27707;DHT22;36332;51.384;0.040;2023-04-16T14:48:25;22.10;96.40
27707;DHT22;36332;51.384;0.040;2023-04-16T14:50:52;23.20;96.50
27707;DHT22;36332;51.384;0.040;2023-04-16T14:53:22;23.20;95.80
27707;DHT22;36332;51.384;0.040;2023-04-16T14:55:51;25.10;94.10
27707;DHT22;36332;51.384;0.040;2023-04-16T14:58:19;25.90;92.90
27707;DHT22;36332;51.384;0.040;2023-04-16T15:00:48;26.40;91.20
27707;DHT22;36332;51.384;0.040;2023-04-16T15:03:16;26.50;89.10
27707;DHT22;36332;51.384;0.040;2023-04-16T15:05:43;26.20;85.60
27707;DHT22;36332;51.384;0.040;2023-04-16T15:08:12;25.80;83.60
27707;DHT22;36332;51.384;0.040;2023-04-16T15:10:40;25.10;84.20
27707;DHT22;36332;51.384;0.040;2023-04-16T15:13:09;24.40;85.40
27707;DHT22;36332;51.384;0.040;2023-04-16T15:15:37;23.70;79.70
27707;DHT22;36332;51.384;0.040;2023-04-16T15:18:05;22.60;97.90
27707;DHT22;36332;51.384;0.040;2023-04-16T15:20:35;22.50;88.10
27707;DHT22;36332;51.384;0.040;2023-04-16T15:23:05;21.90;94.70
27707;DHT22;36332;51.384;0.040;2023-04-16T15:25:32;21.50;95.50
27707;DHT22;36332;51.384;0.040;2023-04-16T15:28:00;21.10;97.60
27707;DHT22;36332;51.384;0.040;2023-04-16T15:30:30;20.70;99.30
27707;DHT22;36332;51.384;0.040;2023-04-16T15:32:57;20.50;98.20
27707;DHT22;36332;51.384;0.040;2023-04-16T15:35:25;20.10;99.90
27707;DHT22;36332;51.384;0.040;2023-04-16T15:37:53;19.80;98.30
27707;DHT22;36332;51.384;0.040;2023-04-16T15:40:21;19.80;99.90
27707;DHT22;36332;51.384;0.040;2023-04-16T15:42:49;19.70;97.20
27707;DHT22;36332;51.384;0.040;2023-04-16T15:45:17;19.50;98.00
27707;DHT22;36332;51.384;0.040;2023-04-16T15:47:44;18.90;99.30
27707;DHT22;36332;51.384;0.040;2023-04-16T15:50:17;19.10;99.80
27707;DHT22;36332;51.384;0.040;2023-04-16T15:52:48;18.60;99.90
27707;DHT22;36332;51.384;0.040;2023-04-16T15:57:49;18.50;99.90
27707;DHT22;36332;51.384;0.040;2023-04-16T16:02:46;18.30;99.90
27707;DHT22;36332;51.384;0.040;2023-04-16T16:05:19;18.10;99.90
27707;DHT22;36332;51.384;0.040;2023-04-16T16:07:46;17.80;99.20
27707;DHT22;36332;51.384;0.040;2023-04-16T16:10:14;17.80;98.60
27707;DHT22;36332;51.384;0.040;2023-04-16T16:12:42;18.00;98.60
27707;DHT22;36332;51.384;0.040;2023-04-16T16:15:10;18.30;99.50
27707;DHT22;36332;51.384;0.040;2023-04-16T16:17:38;18.30;99.00
27707;DHT22;36332;51.384;0.040;2023-04-16T16:20:06;18.30;99.60
27707;DHT22;36332;51.384;0.040;2023-04-16T16:25:06;17.90;99.90
27707;DHT22;36332;51.384;0.040;2023-04-16T16:27:34;18.40;99.50
27707;DHT22;36332;51.384;0.040;2023-04-16T16:30:03;18.90;99.90
27707;DHT22;36332;51.384;0.040;2023-04-16T16:35:02;18.70;98.80
27707;DHT22;36332;51.384;0.040;2023-04-16T16:39:58;17.10;99.90
27707;DHT22;36332;51.384;0.040;2023-04-16T16:42:26;18.90;98.20
27707;DHT22;36332;51.384;0.040;2023-04-16T16:44:53;19.00;97.80